Time;durP1;ratioP1;P1;durP2;ratioP2;P2;SDS_P1;SDS_P2;PMS_P1;PMS_P2;Temp;Humidity;BMP_temperature;BMP_pressure;BME280_temperature;BME280_humidity;BME280_pressure;Samples;Min_cycle;Max_cycle;Signal;HPM_P1;HPM_P2
2023/09/26 00:00:31;;;;;;;20.58;4.80;;;;;;;14.51;69.14;96738.47;5134088;28;20053;-61
2023/09/26 00:02:59;;;;;;;11.20;4.10;;;;;;;14.51;69.10;96740.28;5133881;28;20425;-61
2023/09/26 00:05:27;;;;;;;15.98;5.45;;;;;;;14.50;70.00;96734.16;5134088;28;20126;-61
2023/09/26 00:07:55;;;;;;;20.40;5.00;;;;;;;14.55;69.51;96728.66;5134216;28;20431;-61
2023/09/26 00:10:24;;;;;;;23.40;5.20;;;;;;;14.52;69.95;96729.69;5133998;28;20140;-61
2023/09/26 00:12:51;;;;;;;18.95;5.03;;;;;;;14.55;70.53;96723.41;5133908;28;20058;-61
2023/09/26 00:15:18;;;;;;;17.42;4.72;;;;;;;14.59;70.81;96726.69;5134063;27;20044;-61
2023/09/26 00:17:45;;;;;;;23.00;5.15;;;;;;;14.54;71.14;96732.19;5133771;28;20100;-61
2023/09/26 00:20:15;;;;;;;18.15;5.10;;;;;;;14.60;71.12;96728.44;5133988;28;20198;-61
2023/09/26 00:22:42;;;;;;;22.57;5.30;;;;;;;14.59;71.04;96730.19;5133924;28;20086;-61
2023/09/26 00:25:10;;;;;;;20.67;5.72;;;;;;;14.58;72.09;96719.75;5133788;28;20055;-61
2023/09/26 00:27:39;;;;;;;15.70;5.68;;;;;;;14.64;72.05;96720.28;5133800;27;20057;-61
2023/09/26 00:30:09;;;;;;;15.95;5.57;;;;;;;14.69;72.11;96717.41;5133860;28;20082;-61
2023/09/26 00:32:38;;;;;;;14.38;5.07;;;;;;;14.70;72.55;96720.91;5133795;27;20048;-61
2023/09/26 00:35:08;;;;;;;29.67;5.32;;;;;;;14.75;72.61;96718.88;5133703;28;20100;-61
2023/09/26 00:37:36;;;;;;;17.35;5.38;;;;;;;14.73;73.12;96716.34;5134208;27;20189;-61
2023/09/26 00:40:04;;;;;;;18.73;5.88;;;;;;;14.81;73.01;96709.84;5137773;27;20051;-61
2023/09/26 00:42:31;;;;;;;18.58;6.10;;;;;;;14.83;73.35;96714.09;5138003;27;20043;-61
2023/09/26 00:44:59;;;;;;;21.10;5.22;;;;;;;14.93;73.50;96713.59;5137636;27;20081;-61
2023/09/26 00:47:27;;;;;;;19.70;5.57;;;;;;;14.98;73.59;96711.56;5137624;27;20043;-61
2023/09/26 00:49:54;;;;;;;14.38;5.32;;;;;;;15.06;73.63;96711.16;5137601;27;20096;-61
2023/09/26 00:52:21;;;;;;;16.45;4.65;;;;;;;15.11;73.72;96711.78;5137611;27;20051;-61
2023/09/26 00:54:50;;;;;;;17.25;5.15;;;;;;;15.11;73.71;96709.16;5137419;27;20049;-61
2023/09/26 00:57:18;;;;;;;18.65;5.30;;;;;;;15.10;73.99;96708.28;5137400;27;20054;-61
2023/09/26 00:59:45;;;;;;;18.25;5.13;;;;;;;15.19;73.81;96709.56;5137338;27;20098;-61
2023/09/26 01:02:14;;;;;;;16.23;5.53;;;;;;;15.26;73.91;96708.31;5137036;27;20521;-61
2023/09/26 01:04:42;;;;;;;24.08;6.03;;;;;;;15.35;73.75;96709.59;5137296;27;20051;-61
2023/09/26 01:07:10;;;;;;;20.02;4.90;;;;;;;15.40;73.91;96709.34;5137185;27;20394;-61
2023/09/26 01:09:37;;;;;;;18.90;5.18;;;;;;;15.43;73.76;96703.03;5137209;27;20054;-61
2023/09/26 01:12:05;;;;;;;18.77;5.28;;;;;;;15.48;73.81;96707.13;5137095;27;20083;-61
2023/09/26 01:14:32;;;;;;;15.75;5.32;;;;;;;15.53;74.03;96698.94;5137083;27;20047;-61
2023/09/26 01:17:00;;;;;;;20.13;5.72;;;;;;;15.58;73.72;96702.19;5136980;27;20043;-61
2023/09/26 01:19:28;;;;;;;18.33;6.05;;;;;;;15.62;73.99;96698.44;5136874;27;20082;-61
2023/09/26 01:21:56;;;;;;;19.38;5.40;;;;;;;15.66;73.80;96697.31;5136960;27;20491;-61
2023/09/26 01:24:24;;;;;;;14.20;5.10;;;;;;;15.71;73.64;96702.34;5137066;27;20043;-61
2023/09/26 01:26:51;;;;;;;15.35;4.90;;;;;;;15.76;73.59;96704.72;5136850;27;20047;-61
2023/09/26 01:29:19;;;;;;;16.20;5.38;;;;;;;15.78;73.33;96708.97;5136824;27;20047;-61
2023/09/26 01:31:46;;;;;;;21.65;4.53;;;;;;;15.74;73.39;96707.44;5136646;27;20405;-61
2023/09/26 01:34:13;;;;;;;16.35;5.60;;;;;;;15.76;73.38;96704.72;5136594;27;20043;-61
2023/09/26 01:36:41;;;;;;;16.65;5.22;;;;;;;15.77;73.26;96709.91;5136733;27;20130;-61
2023/09/26 01:39:08;;;;;;;18.45;5.32;;;;;;;15.81;73.20;96709.75;5136599;27;20096;-61
2023/09/26 01:41:36;;;;;;;24.45;5.68;;;;;;;15.77;72.96;96715.19;5136865;27;20125;-61
2023/09/26 01:44:07;;;;;;;21.95;5.93;;;;;;;15.78;72.66;96710.78;5136433;27;20497;-61
2023/09/26 01:46:34;;;;;;;19.48;6.60;;;;;;;15.68;73.05;96712.25;5136471;27;20126;-61
2023/09/26 01:49:01;;;;;;;26.20;5.85;;;;;;;15.62;73.33;96714.25;5135822;27;20481;-61
2023/09/26 01:51:28;;;;;;;17.45;5.20;;;;;;;15.61;73.36;96709.94;5135936;27;20046;-61
2023/09/26 01:53:55;;;;;;;18.98;5.65;;;;;;;15.56;73.44;96711.13;5136328;27;20076;-61
2023/09/26 01:56:22;;;;;;;17.58;5.63;;;;;;;15.50;73.49;96714.97;5136217;27;20126;-61
2023/09/26 01:58:51;;;;;;;19.98;6.13;;;;;;;15.46;73.61;96714.28;5136378;27;20517;-61
2023/09/26 02:01:19;;;;;;;15.15;5.78;;;;;;;15.44;73.61;96707.38;5135913;27;20497;-61
2023/09/26 02:03:46;;;;;;;19.50;5.72;;;;;;;15.39;73.83;96711.09;5136070;27;20039;-61
2023/09/26 02:06:13;;;;;;;17.67;5.10;;;;;;;15.36;73.89;96713.06;5136148;27;20545;-61
2023/09/26 02:08:40;;;;;;;22.75;5.35;;;;;;;15.36;73.51;96702.53;5135935;27;20045;-61
2023/09/26 02:11:07;;;;;;;18.58;5.70;;;;;;;15.35;73.74;96704.31;5136143;27;20075;-61
2023/09/26 02:13:34;;;;;;;20.05;5.65;;;;;;;15.35;73.51;96709.59;5136039;27;20126;-61
2023/09/26 02:16:03;;;;;;;12.27;5.50;;;;;;;15.28;73.71;96709.09;5136102;27;20350;-61
2023/09/26 02:18:32;;;;;;;13.75;5.60;;;;;;;15.27;73.53;96706.53;5135742;27;20375;-61
2023/09/26 02:20:59;;;;;;;17.65;5.20;;;;;;;15.20;73.91;96705.16;5135839;27;20047;-61
2023/09/26 02:23:26;;;;;;;19.98;5.43;;;;;;;15.19;74.00;96708.72;5135598;27;20053;-61
2023/09/26 02:25:53;;;;;;;16.73;5.78;;;;;;;15.19;73.54;96709.56;5135591;27;20096;-61
2023/09/26 02:28:20;;;;;;;17.42;5.97;;;;;;;15.18;73.75;96712.28;5135826;27;20047;-61
2023/09/26 02:30:47;;;;;;;20.48;5.25;;;;;;;15.15;73.45;96708.88;5135911;27;20047;-61
2023/09/26 02:33:16;;;;;;;23.15;6.68;;;;;;;15.12;73.85;96710.84;5135557;27;20043;-61
2023/09/26 02:35:43;;;;;;;22.13;5.82;;;;;;;15.08;73.66;96712.78;5135486;27;20126;-61
2023/09/26 02:38:11;;;;;;;17.98;6.22;;;;;;;15.05;73.80;96712.94;5135324;27;20496;-61
2023/09/26 02:40:38;;;;;;;16.55;5.22;;;;;;;15.05;73.62;96714.75;5135397;27;20130;-61
2023/09/26 02:43:05;;;;;;;20.98;6.05;;;;;;;15.03;73.61;96718.28;5135325;27;20074;-61
2023/09/26 02:45:32;;;;;;;23.75;5.95;;;;;;;14.95;73.67;96719.63;5135241;27;20134;-61
2023/09/26 02:47:59;;;;;;;18.35;5.80;;;;;;;14.91;73.74;96714.53;5135191;27;20081;-61
2023/09/26 02:50:28;;;;;;;25.58;5.93;;;;;;;14.86;73.94;96713.06;5135471;27;20043;-61
2023/09/26 02:52:55;;;;;;;15.15;5.82;;;;;;;14.83;73.98;96710.59;5135222;27;20066;-61
2023/09/26 02:55:22;;;;;;;16.00;5.75;;;;;;;14.80;74.24;96722.16;5135071;27;20053;-61
2023/09/26 02:57:49;;;;;;;17.25;5.57;;;;;;;14.78;74.17;96727.50;5135068;27;20111;-61
2023/09/26 03:00:17;;;;;;;32.92;6.55;;;;;;;14.68;74.69;96723.59;5134776;27;20043;-61
2023/09/26 03:02:45;;;;;;;19.25;6.70;;;;;;;14.60;75.02;96724.00;5134625;27;20446;-61
2023/09/26 03:05:13;;;;;;;20.15;5.68;;;;;;;14.51;75.66;96721.84;5134906;27;20101;-61
2023/09/26 03:07:42;;;;;;;19.42;6.07;;;;;;;14.55;75.67;96730.44;5134806;27;20050;-61
2023/09/26 03:10:10;;;;;;;15.90;5.68;;;;;;;14.52;75.53;96720.91;5134749;27;20047;-61
2023/09/26 03:12:37;;;;;;;20.95;6.00;;;;;;;14.52;76.17;96713.88;5134700;27;20048;-61
2023/09/26 03:15:06;;;;;;;15.82;5.72;;;;;;;14.52;76.66;96716.50;5134621;27;20119;-61
2023/09/26 03:17:33;;;;;;;23.38;6.65;;;;;;;14.48;77.49;96716.75;5134686;27;20054;-61
2023/09/26 03:20:01;;;;;;;24.48;6.53;;;;;;;14.43;78.19;96718.75;5134588;27;20047;-61
2023/09/26 03:22:28;;;;;;;22.70;6.40;;;;;;;14.39;78.14;96724.16;5134799;27;20116;-61
2023/09/26 03:24:56;;;;;;;15.18;6.07;;;;;;;14.41;78.47;96724.09;5134562;27;20050;-61
2023/09/26 03:27:25;;;;;;;27.55;6.25;;;;;;;14.42;78.19;96722.31;5134490;27;20051;-61
2023/09/26 03:29:52;;;;;;;14.68;6.38;;;;;;;14.45;77.64;96719.53;5134341;27;20497;-61
2023/09/26 03:32:20;;;;;;;15.25;5.60;;;;;;;14.45;77.55;96717.72;5134376;27;20054;-61
2023/09/26 03:34:48;;;;;;;16.63;5.65;;;;;;;14.45;77.33;96720.38;5134674;27;20047;-61
2023/09/26 03:37:15;;;;;;;24.08;7.15;;;;;;;14.50;77.03;96725.41;5134338;27;20081;-61
2023/09/26 03:39:42;;;;;;;19.33;5.63;;;;;;;14.52;76.86;96719.16;5134234;27;20481;-61
2023/09/26 03:42:11;;;;;;;20.27;5.85;;;;;;;14.44;77.71;96725.69;5134267;27;20086;-61
2023/09/26 03:44:39;;;;;;;27.50;6.18;;;;;;;14.45;77.81;96724.78;5134307;27;20058;-61
2023/09/26 03:47:06;;;;;;;20.52;5.60;;;;;;;14.44;78.20;96729.19;5134101;27;20043;-62
2023/09/26 03:49:33;;;;;;;16.30;6.25;;;;;;;14.44;78.03;96731.81;5134138;27;20074;-61
2023/09/26 03:52:04;;;;;;;17.35;7.18;;;;;;;14.41;78.76;96729.34;5133972;27;20481;-61
2023/09/26 03:54:32;;;;;;;18.15;6.38;;;;;;;14.41;79.08;96729.34;5134395;27;20086;-61
2023/09/26 03:56:59;;;;;;;19.58;6.55;;;;;;;14.41;79.14;96731.97;5134023;27;20098;-61
2023/09/26 03:59:28;;;;;;;22.98;6.93;;;;;;;14.34;79.74;96739.34;5134032;27;20123;-61
2023/09/26 04:01:55;;;;;;;18.90;6.50;;;;;;;14.28;80.53;96729.13;5133887;27;20104;-61
2023/09/26 04:04:23;;;;;;;14.45;5.88;;;;;;;14.24;81.11;96733.69;5134155;28;20446;-61
2023/09/26 04:06:57;;;;;;;15.02;6.50;;;;;;;14.29;81.40;96733.44;5133928;28;20488;-61
2023/09/26 04:09:25;;;;;;;25.88;6.88;;;;;;;14.24;82.13;96731.03;5134016;28;20506;-61
2023/09/26 04:11:55;;;;;;;18.17;6.22;;;;;;;14.25;82.91;96737.16;5134000;27;20396;-61
2023/09/26 04:14:22;;;;;;;19.52;7.10;;;;;;;14.24;83.18;96738.09;5137545;27;20047;-61
2023/09/26 04:16:52;;;;;;;20.17;6.35;;;;;;;14.25;83.63;96731.91;5138359;27;20074;-61
2023/09/26 04:19:20;;;;;;;25.98;7.32;;;;;;;14.24;84.11;96735.47;5138007;27;20051;-62
2023/09/26 04:21:47;;;;;;;22.90;7.03;;;;;;;14.32;84.94;96727.16;5137984;27;20126;-61
2023/09/26 04:24:14;;;;;;;25.67;7.78;;;;;;;14.36;85.71;96729.56;5138051;27;20043;-61
2023/09/26 04:26:42;;;;;;;24.75;7.25;;;;;;;14.45;86.10;96732.69;5138349;27;20051;-61
2023/09/26 04:29:10;;;;;;;21.77;7.22;;;;;;;14.58;85.88;96731.13;5137982;27;20121;-61
2023/09/26 04:31:37;;;;;;;15.40;6.15;;;;;;;14.73;84.58;96734.75;5137955;27;20043;-61
2023/09/26 04:34:06;;;;;;;23.55;6.70;;;;;;;14.89;83.92;96724.31;5137960;27;20043;-61
2023/09/26 04:36:34;;;;;;;13.32;6.07;;;;;;;15.03;83.54;96723.56;5137855;27;20550;-61
2023/09/26 04:39:01;;;;;;;18.85;6.35;;;;;;;15.13;82.55;96731.84;5137635;27;20047;-61
2023/09/26 04:41:28;;;;;;;22.70;6.13;;;;;;;15.22;82.23;96729.63;5137871;27;20382;-61
2023/09/26 04:43:55;;;;;;;22.05;6.10;;;;;;;15.32;81.81;96727.38;5137674;27;20047;-61
2023/09/26 04:46:22;;;;;;;22.67;7.28;;;;;;;15.43;82.07;96732.88;5137552;27;20381;-61
2023/09/26 04:48:49;;;;;;;27.05;6.55;;;;;;;15.57;81.27;96734.78;5137666;27;20122;-61
2023/09/26 04:51:19;;;;;;;11.88;5.80;;;;;;;15.67;80.51;96735.09;5137849;27;20058;-61
2023/09/26 04:53:47;;;;;;;19.00;6.50;;;;;;;15.80;80.05;96737.91;5137567;27;20480;-61
2023/09/26 04:56:14;;;;;;;28.15;6.50;;;;;;;15.88;79.73;96743.63;5137387;27;20400;-61
2023/09/26 04:58:41;;;;;;;25.80;6.38;;;;;;;15.97;80.08;96751.97;5137277;27;20062;-61
2023/09/26 05:01:15;;;;;;;21.45;6.47;;;;;;;16.03;80.01;96749.84;5137152;27;20057;-61
2023/09/26 05:03:42;;;;;;;16.65;7.30;;;;;;;16.22;79.77;96746.13;5137220;27;20082;-61
2023/09/26 05:06:10;;;;;;;12.68;6.50;;;;;;;16.40;79.01;96756.56;5137237;27;20100;-62
2023/09/26 05:08:41;;;;;;;23.52;5.88;;;;;;;16.61;78.04;96751.81;5137341;27;20070;-61
2023/09/26 05:11:14;;;;;;;16.48;6.20;;;;;;;16.78;77.34;96758.75;5137169;27;20095;-61
2023/09/26 05:13:42;;;;;;;19.52;6.45;;;;;;;16.94;76.45;96755.16;5136973;27;20051;-61
2023/09/26 05:16:10;;;;;;;25.50;7.00;;;;;;;17.20;74.99;96759.84;5137050;27;20043;-61
2023/09/26 05:18:37;;;;;;;19.08;6.07;;;;;;;17.34;74.41;96751.88;5136967;27;20054;-62
2023/09/26 05:21:06;;;;;;;28.95;6.40;;;;;;;17.48;73.80;96758.97;5136901;27;20057;-62
2023/09/26 05:23:34;;;;;;;16.60;6.05;;;;;;;17.60;72.89;96753.84;5136738;27;20129;-61
2023/09/26 05:26:06;;;;;;;15.35;5.82;;;;;;;17.71;71.92;96761.97;5135667;27;20096;-62
2023/09/26 05:28:34;;;;;;;29.17;6.15;;;;;;;17.84;71.86;96767.31;5136883;27;20121;-61
2023/09/26 05:31:02;;;;;;;25.05;6.00;;;;;;;17.88;71.05;96765.34;5136822;27;20047;-61
2023/09/26 05:33:29;;;;;;;21.45;5.57;;;;;;;18.06;70.80;96771.22;5136730;27;20062;-61
2023/09/26 05:35:56;;;;;;;22.58;5.93;;;;;;;18.32;69.97;96771.34;5137039;27;20050;-61
2023/09/26 05:38:25;;;;;;;22.88;5.97;;;;;;;18.67;67.95;96765.47;5136499;27;20503;-61
2023/09/26 05:40:53;;;;;;;28.27;6.40;;;;;;;19.39;64.99;96776.56;5136618;27;20039;-61
2023/09/26 05:43:21;;;;;;;24.02;6.05;;;;;;;20.17;61.29;96776.38;5136440;27;20422;-62
2023/09/26 05:45:51;;;;;;;14.65;5.25;;;;;;;20.80;58.08;96793.06;5136586;27;20074;-62
2023/09/26 05:48:18;;;;;;;27.55;4.65;;;;;;;21.25;56.74;96789.66;5136445;27;20043;-62
2023/09/26 05:50:45;;;;;;;25.92;5.40;;;;;;;22.08;54.05;96788.56;5136483;27;20047;-62
2023/09/26 05:53:12;;;;;;;22.02;4.97;;;;;;;23.32;52.89;96800.59;5136452;27;20131;-62
2023/09/26 05:55:40;;;;;;;22.35;4.80;;;;;;;24.43;47.69;96801.69;5136498;27;20499;-62
2023/09/26 05:58:07;;;;;;;25.92;5.07;;;;;;;25.17;45.77;96798.56;5136304;27;20054;-62
2023/09/26 06:00:38;;;;;;;30.00;4.85;;;;;;;26.44;43.47;96799.03;5136140;27;20074;-62
2023/09/26 06:03:05;;;;;;;;;;;;;;;26.70;40.79;96800.09;5136655;27;20454;-62
2023/09/26 06:05:32;;;;;;;24.05;4.40;;;;;;;26.36;41.30;96801.59;5136035;27;20376;-62
2023/09/26 06:07:59;;;;;;;15.35;4.55;;;;;;;25.61;42.78;96800.72;5136012;27;20134;-62
2023/09/26 06:10:26;;;;;;;26.73;5.53;;;;;;;24.92;44.06;96801.72;5135943;27;20488;-61
2023/09/26 06:12:55;;;;;;;24.00;5.20;;;;;;;24.53;44.63;96794.50;5136025;27;20047;-62
2023/09/26 06:15:24;;;;;;;28.77;6.18;;;;;;;24.85;43.89;96798.75;5136007;27;20070;-61
2023/09/26 06:17:57;;;;;;;22.75;4.50;;;;;;;24.82;43.94;96795.50;5135824;27;20107;-61
2023/09/26 06:20:24;;;;;;;21.17;4.63;;;;;;;24.93;43.34;96794.53;5135689;27;20053;-61
2023/09/26 06:22:51;;;;;;;18.73;5.10;;;;;;;24.58;44.32;96797.63;5135768;27;20081;-61
2023/09/26 06:25:19;;;;;;;19.52;5.05;;;;;;;23.78;46.33;96797.59;5135733;27;20039;-61
2023/09/26 06:27:46;;;;;;;22.27;5.03;;;;;;;23.37;48.06;96794.91;5135748;27;20051;-61
2023/09/26 06:30:13;;;;;;;23.20;4.97;;;;;;;22.98;48.78;96793.66;5135519;27;20043;-61
2023/09/26 06:32:40;;;;;;;26.30;5.13;;;;;;;22.81;49.27;96798.59;5135545;27;20088;-61
2023/09/26 06:35:10;;;;;;;15.93;4.53;;;;;;;23.13;48.99;96793.31;5135487;27;20051;-61
2023/09/26 06:37:38;;;;;;;28.98;5.00;;;;;;;23.44;48.29;96799.56;5135350;27;20100;-62
2023/09/26 06:40:06;;;;;;;23.48;4.85;;;;;;;23.30;47.96;96795.38;5135464;27;20412;-61
2023/09/26 06:42:33;;;;;;;25.90;5.65;;;;;;;23.09;47.79;96803.44;5135881;27;20047;-61
2023/09/26 06:45:00;;;;;;;22.95;4.72;;;;;;;22.81;48.63;96809.28;5135685;27;20104;-61
2023/09/26 06:47:27;;;;;;;21.23;4.47;;;;;;;22.62;48.81;96798.44;5135381;27;20043;-61
2023/09/26 06:49:56;;;;;;;16.98;4.45;;;;;;;22.74;48.10;96808.09;5135213;27;20046;-61
2023/09/26 06:52:24;;;;;;;19.85;4.60;;;;;;;23.02;48.62;96800.44;5135160;27;20554;-61
2023/09/26 06:54:52;;;;;;;24.33;4.70;;;;;;;23.69;47.59;96804.59;5135368;27;20039;-61
2023/09/26 06:57:26;;;;;;;20.58;4.78;;;;;;;24.06;45.66;96806.69;5135019;27;20043;-61
2023/09/26 06:59:55;;;;;;;20.95;5.05;;;;;;;24.07;45.12;96808.38;5135261;27;20570;-62
2023/09/26 07:02:23;;;;;;;20.20;4.50;;;;;;;24.01;45.34;96806.22;5134767;27;20100;-61
2023/09/26 07:04:54;;;;;;;24.10;4.60;;;;;;;24.29;44.68;96794.94;5135025;27;20047;-61
2023/09/26 07:07:22;;;;;;;17.98;4.35;;;;;;;24.67;44.92;96797.75;5135152;27;20092;-61
2023/09/26 07:09:51;;;;;;;23.17;4.47;;;;;;;25.20;43.25;96804.47;5134764;27;20046;-62
2023/09/26 07:12:18;;;;;;;14.20;4.00;;;;;;;25.54;42.18;96807.63;5134833;27;20137;-62
2023/09/26 07:14:45;;;;;;;23.63;4.57;;;;;;;25.59;41.57;96803.53;5134863;27;20070;-61
2023/09/26 07:17:12;;;;;;;24.05;4.80;;;;;;;25.91;41.76;96811.31;5134664;27;20118;-61
2023/09/26 07:19:39;;;;;;;23.50;3.88;;;;;;;25.76;40.40;96819.00;5134594;27;20047;-62
2023/09/26 07:22:06;;;;;;;23.45;4.28;;;;;;;24.83;42.29;96808.72;5134660;27;20055;-62
2023/09/26 07:24:33;;;;;;;23.48;4.43;;;;;;;24.31;43.13;96800.97;5134776;27;20051;-61
2023/09/26 07:27:02;;;;;;;28.92;4.30;;;;;;;24.19;45.02;96810.94;5134634;27;20051;-61
2023/09/26 07:29:30;;;;;;;16.92;4.50;;;;;;;24.34;44.61;96800.69;5134665;27;20046;-61
2023/09/26 07:31:57;;;;;;;23.98;4.22;;;;;;;24.30;44.43;96810.84;5134365;27;20591;-61
2023/09/26 07:34:24;;;;;;;16.73;4.60;;;;;;;24.04;45.09;96805.97;5134395;27;20043;-61
2023/09/26 07:36:51;;;;;;;19.23;4.40;;;;;;;24.44;45.26;96806.06;5134357;27;20485;-61
2023/09/26 07:39:18;;;;;;;17.30;4.30;;;;;;;24.73;43.96;96811.41;5134349;27;20453;-61
2023/09/26 07:41:47;;;;;;;24.95;5.43;;;;;;;24.88;43.41;96812.81;5134334;27;20043;-61
2023/09/26 07:44:15;;;;;;;16.38;5.40;;;;;;;25.19;42.68;96824.19;5134422;27;20048;-61
2023/09/26 07:46:43;;;;;;;17.05;5.05;;;;;;;25.33;41.47;96816.69;5134071;27;20135;-61
2023/09/26 07:49:10;;;;;;;18.33;4.18;;;;;;;25.19;41.07;96823.38;5133709;27;20054;-61
2023/09/26 07:51:37;;;;;;;21.48;5.00;;;;;;;24.52;42.96;96814.22;5134295;27;20047;-61
2023/09/26 07:54:05;;;;;;;16.52;3.35;;;;;;;24.61;42.96;96817.88;5134251;27;20047;-61
2023/09/26 07:56:33;;;;;;;18.38;4.60;;;;;;;24.41;43.27;96819.72;5134165;27;20065;-61
2023/09/26 07:59:00;;;;;;;38.33;5.68;;;;;;;24.07;44.01;96797.69;5133982;27;20051;-61
2023/09/26 08:01:28;;;;;;;16.98;5.03;;;;;;;24.19;43.65;96809.13;5133822;27;20531;-61
2023/09/26 08:03:56;;;;;;;16.02;4.95;;;;;;;24.19;43.73;96813.63;5134367;28;20043;-61
2023/09/26 08:06:26;;;;;;;21.73;4.97;;;;;;;24.00;44.39;96812.56;5134007;28;20133;-61
2023/09/26 08:08:53;;;;;;;20.80;5.15;;;;;;;23.92;45.08;96812.38;5133925;28;20526;-61
2023/09/26 08:11:21;;;;;;;14.77;3.92;;;;;;;23.89;44.56;96802.81;5133916;28;20054;-61
2023/09/26 08:13:48;;;;;;;18.75;4.18;;;;;;;23.70;45.01;96808.94;5133980;28;20044;-61
2023/09/26 08:16:15;;;;;;;15.65;4.05;;;;;;;23.56;45.71;96812.81;5133983;28;20450;-62
2023/09/26 08:18:44;;;;;;;19.98;3.65;;;;;;;23.50;45.47;96813.38;5133808;28;20105;-61
2023/09/26 08:21:11;;;;;;;16.00;3.75;;;;;;;23.37;45.57;96806.41;5134128;28;20477;-61
2023/09/26 08:23:39;;;;;;;19.75;3.83;;;;;;;23.66;45.51;96810.22;5133929;28;20051;-61
2023/09/26 08:26:06;;;;;;;18.38;4.18;;;;;;;23.64;44.97;96815.69;5134169;28;20050;-61
2023/09/26 08:28:34;;;;;;;21.73;3.92;;;;;;;23.74;45.05;96807.69;5133806;27;20054;-61
2023/09/26 08:31:05;;;;;;;19.05;4.80;;;;;;;23.71;45.51;96811.50;5133786;28;20047;-61
2023/09/26 08:33:32;;;;;;;19.63;4.18;;;;;;;23.77;44.46;96809.25;5133830;28;20051;-61
2023/09/26 08:36:01;;;;;;;18.67;4.03;;;;;;;23.65;45.10;96817.34;5133937;28;20493;-61
2023/09/26 08:38:29;;;;;;;23.02;4.70;;;;;;;23.62;45.04;96817.63;5133823;28;20447;-61
2023/09/26 08:40:58;;;;;;;15.40;4.25;;;;;;;23.76;44.51;96804.88;5133561;28;20409;-61
2023/09/26 08:43:27;;;;;;;19.03;4.40;;;;;;;23.92;44.29;96804.38;5133743;28;20047;-61
2023/09/26 08:45:55;;;;;;;24.42;4.63;;;;;;;24.01;44.15;96808.91;5133584;28;20275;-61
2023/09/26 08:48:22;;;;;;;25.58;4.90;;;;;;;23.92;44.82;96805.22;5133514;28;20059;-61
2023/09/26 08:50:50;;;;;;;14.43;3.60;;;;;;;23.78;45.44;96810.97;5133743;28;20047;-61
2023/09/26 08:53:18;;;;;;;16.65;4.05;;;;;;;23.67;45.58;96826.09;5133557;27;20517;-62
2023/09/26 08:55:46;;;;;;;10.93;3.90;;;;;;;23.56;45.22;96823.50;5133673;27;20096;-61
2023/09/26 08:58:16;;;;;;;26.30;4.50;;;;;;;23.54;45.65;96818.28;5133622;27;20090;-61
2023/09/26 09:00:43;;;;;;;11.90;3.95;;;;;;;23.64;45.56;96821.03;5137046;27;20047;-61
2023/09/26 09:03:11;;;;;;;17.90;3.78;;;;;;;23.82;45.40;96804.34;5137434;27;20122;-61
2023/09/26 09:05:41;;;;;;;19.05;4.57;;;;;;;24.22;44.68;96808.00;5137390;27;20047;-61
2023/09/26 09:08:09;;;;;;;14.50;4.85;;;;;;;24.86;43.44;96804.91;5137373;27;20104;-61
2023/09/26 09:10:50;;;;;;;23.13;5.22;;;;;;;25.24;42.98;96813.91;5137199;27;20055;-62
2023/09/26 09:13:27;;;;;;;14.50;3.97;;;;;;;25.57;42.27;96807.31;5137243;27;20047;-62
2023/09/26 09:16:07;;;;;;;18.88;4.05;;;;;;;25.61;40.85;96809.59;5137137;27;20058;-61
2023/09/26 09:18:34;;;;;;;27.77;4.60;;;;;;;25.62;41.25;96797.06;5137093;27;20112;-62
2023/09/26 09:21:14;;;;;;;18.63;4.43;;;;;;;25.90;41.09;96793.53;5136972;27;20058;-61
2023/09/26 09:23:46;;;;;;;18.03;4.33;;;;;;;26.40;39.73;96786.91;5136992;27;20051;-62
2023/09/26 09:26:15;;;;;;;14.38;3.80;;;;;;;26.42;38.85;96792.09;5137135;27;20280;-62
2023/09/26 09:28:42;;;;;;;18.25;4.25;;;;;;;26.18;39.31;96789.00;5136828;27;20043;-62
2023/09/26 09:31:09;;;;;;;20.40;4.65;;;;;;;26.03;39.27;96799.38;5136828;27;20047;-62
2023/09/26 09:33:37;;;;;;;20.70;3.70;;;;;;;25.90;39.76;96796.22;5136753;27;20133;-61
2023/09/26 09:36:05;;;;;;;20.45;3.78;;;;;;;25.84;39.90;96803.88;5136667;27;20122;-62
2023/09/26 09:38:33;;;;;;;16.20;3.47;;;;;;;25.66;39.32;96803.81;5136848;27;20419;-61
2023/09/26 09:41:04;;;;;;;17.33;3.83;;;;;;;25.46;40.01;96797.63;5136634;27;20471;-62
2023/09/26 09:43:33;;;;;;;16.83;3.88;;;;;;;25.43;40.72;96796.09;5136699;27;20040;-61
2023/09/26 09:46:04;;;;;;;19.00;3.83;;;;;;;25.61;40.17;96790.84;5136501;27;20087;-62
2023/09/26 09:48:35;;;;;;;20.63;4.53;;;;;;;25.34;40.92;96784.44;5136468;27;20039;-61
2023/09/26 09:51:05;;;;;;;9.57;3.80;;;;;;;25.26;40.87;96784.34;5136482;27;20044;-61
2023/09/26 09:53:36;;;;;;;18.95;4.22;;;;;;;25.27;39.93;96777.13;5136347;27;20484;-61
2023/09/26 09:56:06;;;;;;;13.60;4.07;;;;;;;25.60;40.76;96785.66;5136302;27;20047;-61
2023/09/26 09:58:39;;;;;;;13.23;3.42;;;;;;;25.79;39.19;96784.72;5136258;27;20500;-62
2023/09/26 10:01:07;;;;;;;14.63;3.20;;;;;;;25.77;39.10;96804.59;5136084;27;20064;-62
2023/09/26 10:03:35;;;;;;;10.98;3.90;;;;;;;25.65;39.65;96783.38;5136223;27;20500;-62
2023/09/26 10:06:08;;;;;;;16.45;3.58;;;;;;;25.80;39.84;96786.41;5136303;27;20085;-62
2023/09/26 10:08:38;;;;;;;11.70;3.88;;;;;;;25.92;40.00;96794.25;5136107;27;20078;-61
2023/09/26 10:11:07;;;;;;;15.47;4.43;;;;;;;25.90;41.10;96789.03;5135255;27;20047;-61
2023/09/26 10:13:36;;;;;;;22.15;3.88;;;;;;;25.72;39.98;96781.78;5136109;27;20477;-61
2023/09/26 10:16:07;;;;;;;9.90;3.90;;;;;;;25.69;40.31;96784.75;5136044;27;20057;-62
2023/09/26 10:18:38;;;;;;;13.40;3.45;;;;;;;25.39;39.87;96781.31;5135830;27;20095;-62
2023/09/26 10:21:05;;;;;;;;;;;;;;;25.12;40.65;96780.28;5136381;27;20047;-62
2023/09/26 10:23:32;;;;;;;11.57;3.78;;;;;;;24.97;41.20;96774.53;5135841;27;19962;-61
2023/09/26 10:26:03;;;;;;;11.90;3.90;;;;;;;24.98;41.04;96774.38;5135800;27;20086;-62
2023/09/26 10:28:31;;;;;;;11.90;4.03;;;;;;;24.86;41.80;96765.66;5135671;27;20086;-61
2023/09/26 10:30:59;;;;;;;8.73;3.33;;;;;;;24.73;42.06;96765.97;5135701;27;20046;-61
2023/09/26 10:33:29;;;;;;;15.43;3.85;;;;;;;24.70;42.65;96765.38;5135616;27;20122;-61
2023/09/26 10:36:04;;;;;;;16.42;4.18;;;;;;;24.66;43.21;96764.00;5135576;27;20039;-61
2023/09/26 10:38:31;;;;;;;11.38;4.00;;;;;;;24.68;42.89;96754.81;5135487;27;20051;-61
2023/09/26 10:40:58;;;;;;;11.48;4.25;;;;;;;25.00;42.39;96755.53;5135383;27;20047;-61
2023/09/26 10:43:28;;;;;;;15.55;4.13;;;;;;;25.48;41.71;96752.81;5135646;27;20043;-61
2023/09/26 10:45:57;;;;;;;18.52;4.07;;;;;;;25.70;40.57;96746.28;5135378;27;20051;-61
2023/09/26 10:48:25;;;;;;;11.13;3.92;;;;;;;25.78;40.75;96747.34;5135491;27;20563;-61
2023/09/26 10:50:52;;;;;;;10.82;3.63;;;;;;;25.59;40.43;96755.34;5135383;27;20043;-62
2023/09/26 10:53:21;;;;;;;6.35;3.58;;;;;;;25.41;40.85;96749.91;5135185;27;20043;-62
2023/09/26 10:55:48;;;;;;;11.05;3.30;;;;;;;25.26;41.39;96752.22;5135121;27;20069;-61
2023/09/26 10:58:21;;;;;;;9.65;3.58;;;;;;;25.09;41.81;96751.97;5135174;27;20082;-61
2023/09/26 11:00:52;;;;;;;11.57;3.67;;;;;;;24.98;41.98;96752.13;5134877;27;20047;-61
2023/09/26 11:03:19;;;;;;;12.10;3.58;;;;;;;24.65;41.88;96752.44;5135096;27;20090;-61
2023/09/26 11:05:48;;;;;;;11.90;4.20;;;;;;;24.45;43.03;96744.44;5135029;27;20408;-61
2023/09/26 11:08:15;;;;;;;14.27;4.10;;;;;;;24.48;43.26;96743.31;5135318;27;20560;-61
2023/09/26 11:10:46;;;;;;;14.30;3.65;;;;;;;24.56;42.99;96743.44;5134748;27;20398;-61
2023/09/26 11:13:14;;;;;;;11.45;4.07;;;;;;;24.60;42.69;96744.00;5134831;27;20043;-61
2023/09/26 11:15:44;;;;;;;11.52;3.40;;;;;;;24.63;42.72;96745.56;5134818;27;20075;-62
2023/09/26 11:18:13;;;;;;;15.75;4.35;;;;;;;24.69;42.80;96737.81;5134872;27;20489;-61
2023/09/26 11:20:41;;;;;;;12.02;3.90;;;;;;;24.79;42.74;96724.41;5134984;27;20147;-61
2023/09/26 11:23:09;;;;;;;10.18;4.30;;;;;;;24.98;43.04;96738.75;5134682;27;20136;-61
2023/09/26 11:25:36;;;;;;;12.82;3.75;;;;;;;24.98;42.13;96736.09;5134644;27;20044;-61
2023/09/26 11:28:04;;;;;;;10.25;3.72;;;;;;;24.95;41.70;96741.75;5134522;27;20058;-61
2023/09/26 11:30:32;;;;;;;11.43;3.92;;;;;;;24.91;41.58;96743.00;5134468;27;20043;-61